Time;durP1;ratioP1;P1;durP2;ratioP2;P2;SDS_P1;SDS_P2;PMS_P1;PMS_P2;Temp;Humidity;BMP_temperature;BMP_pressure;BME280_temperature;BME280_humidity;BME280_pressure;Samples;Min_cycle;Max_cycle;Signal;HPM_P1;HPM_P2
2022/08/10 00:02:26;;;;;;;4.65;1.70;;;;;;;25.02;37.92;98642.38;4455910;32;20245;-80
2022/08/10 00:04:53;;;;;;;5.60;1.70;;;;;;;25.13;37.39;98642.22;4455526;32;20089;-80
2022/08/10 00:07:20;;;;;;;3.55;1.73;;;;;;;25.14;37.45;98643.03;4455818;32;20084;-80
2022/08/10 00:09:47;;;;;;;3.78;1.75;;;;;;;25.24;37.12;98641.22;4455864;32;20152;-80
2022/08/10 00:12:18;;;;;;;3.37;1.67;;;;;;;25.31;36.92;98644.94;4455372;32;20097;-80
2022/08/10 00:14:45;;;;;;;5.47;2.00;;;;;;;26.02;35.49;98634.59;4441848;32;20109;-80
2022/08/10 00:17:12;;;;;;;3.80;1.80;;;;;;;25.84;35.63;98647.81;4455831;32;20101;-80
2022/08/10 00:19:39;;;;;;;5.37;1.70;;;;;;;25.22;36.75;98644.00;4455488;32;20160;-80
2022/08/10 00:22:26;;;;;;;6.22;1.65;;;;;;;25.34;36.67;98634.09;4455538;32;20142;-80
2022/08/10 00:24:56;;;;;;;3.62;1.30;;;;;;;24.20;38.43;98635.69;4441411;32;20519;-81
2022/08/10 00:27:24;;;;;;;5.60;1.70;;;;;;;24.97;37.03;98634.84;4455803;32;20429;-81
2022/08/10 00:30:11;;;;;;;3.80;1.60;;;;;;;24.50;37.82;98634.75;4455518;32;20150;-80
2022/08/10 00:32:38;;;;;;;4.32;1.92;;;;;;;24.35;38.67;98630.88;4455093;32;20160;-80
2022/08/10 00:35:06;;;;;;;3.37;1.60;;;;;;;25.22;37.06;98640.53;4455409;32;20109;-80
2022/08/10 00:37:33;;;;;;;6.60;1.80;;;;;;;25.74;36.04;98640.91;4455570;32;20532;-80
2022/08/10 00:40:00;;;;;;;4.07;1.65;;;;;;;24.65;37.80;98639.59;4455177;32;20097;-80
2022/08/10 00:42:27;;;;;;;3.78;1.70;;;;;;;24.40;38.79;98635.72;4455363;32;20115;-80
2022/08/10 00:44:54;;;;;;;3.45;1.58;;;;;;;26.01;37.58;98640.06;4441434;32;20171;-80
2022/08/10 00:47:21;;;;;;;5.40;1.90;;;;;;;26.53;36.62;98631.34;4441227;32;20171;-81
2022/08/10 00:50:04;;;;;;;4.87;1.77;;;;;;;25.98;37.45;98637.72;4455526;32;20113;-81
2022/08/10 00:52:32;;;;;;;5.93;1.75;;;;;;;26.64;35.83;98634.75;4455210;32;20163;-80
2022/08/10 00:55:01;;;;;;;2.80;1.60;;;;;;;26.76;35.69;98622.91;4455138;32;20153;-81
2022/08/10 00:57:28;;;;;;;2.80;1.60;;;;;;;26.32;36.24;98628.16;4455275;32;20131;-81
2022/08/10 00:59:55;;;;;;;3.92;1.80;;;;;;;26.17;36.33;98641.06;4454902;32;20132;-81
2022/08/10 01:02:30;;;;;;;5.53;1.80;;;;;;;26.55;35.08;98640.94;4455177;32;20115;-81
2022/08/10 01:05:01;;;;;;;5.00;1.65;;;;;;;26.31;35.28;98633.59;4455104;32;20158;-80
2022/08/10 01:07:55;;;;;;;5.18;1.70;;;;;;;26.27;35.15;98627.78;4454807;32;20076;-81
2022/08/10 01:10:29;;;;;;;4.97;1.60;;;;;;;25.55;36.63;98629.41;4440664;32;20434;-81
2022/08/10 01:13:01;;;;;;;3.87;1.77;;;;;;;25.65;36.67;98630.22;4441231;32;20119;-81
2022/08/10 01:15:32;;;;;;;6.47;1.98;;;;;;;25.05;37.97;98642.09;4454516;32;20102;-81
2022/08/10 01:18:20;;;;;;;9.68;2.10;;;;;;;24.93;38.01;98636.09;4455006;32;20503;-81
2022/08/10 01:21:09;;;;;;;5.30;1.70;;;;;;;25.42;37.45;98643.94;4442559;32;20101;-81
2022/08/10 01:23:36;;;;;;;4.07;1.73;;;;;;;26.25;35.45;98638.47;4456729;32;20168;-80
2022/08/10 01:26:24;;;;;;;3.60;1.70;;;;;;;25.88;36.58;98632.47;4457042;32;20097;-80
2022/08/10 01:29:02;;;;;;;5.75;1.80;;;;;;;25.96;36.22;98640.50;4443509;32;20107;-80
2022/08/10 01:31:33;;;;;;;3.50;1.60;;;;;;;25.81;36.52;98647.25;4443030;32;20123;-80
2022/08/10 01:34:10;;;;;;;5.28;1.90;;;;;;;24.86;38.24;98639.44;4456987;32;20116;-80
2022/08/10 01:36:45;;;;;;;4.40;1.80;;;;;;;24.89;38.03;98632.09;4442640;32;20089;-81
2022/08/10 01:39:25;;;;;;;5.05;2.20;;;;;;;24.83;38.24;98626.53;4443175;32;20103;-81
2022/08/10 01:41:57;;;;;;;3.58;1.62;;;;;;;24.80;38.25;98630.31;4442743;32;20108;-81
2022/08/10 01:44:35;;;;;;;3.78;1.60;;;;;;;25.09;37.82;98632.91;4456759;32;20119;-81
2022/08/10 01:49:57;;;;;;;4.60;1.80;;;;;;;25.53;37.09;98641.94;4444882;32;20085;-80
2022/08/10 01:52:25;;;;;;;5.45;1.80;;;;;;;25.73;37.19;98644.50;4456849;32;20092;-80
2022/08/10 01:54:54;;;;;;;5.70;1.87;;;;;;;25.41;37.74;98644.91;4442745;32;20185;-80
2022/08/10 01:57:24;;;;;;;4.07;1.87;;;;;;;24.75;38.56;98643.91;4456511;32;20372;-80
2022/08/10 01:59:52;;;;;;;3.67;1.58;;;;;;;23.88;40.21;98648.25;4442902;32;20085;-80
2022/08/10 02:02:27;;;;;;;;;;;;;;;24.99;38.13;98645.25;4457252;32;20113;-80
2022/08/10 02:04:55;;;;;;;4.15;1.90;;;;;;;24.96;38.37;98650.81;4456417;32;20020;-80
2022/08/10 02:07:24;;;;;;;4.95;1.83;;;;;;;24.33;39.88;98646.00;4456719;32;20148;-80
2022/08/10 02:09:52;;;;;;;8.43;1.98;;;;;;;25.11;38.81;98651.25;4442375;32;20117;-80
2022/08/10 02:12:23;;;;;;;4.97;2.17;;;;;;;25.29;38.42;98653.00;4442743;32;20153;-80
2022/08/10 02:14:53;;;;;;;5.62;1.90;;;;;;;24.87;38.94;98652.50;4442713;32;20101;-80
2022/08/10 02:17:24;;;;;;;4.85;1.70;;;;;;;25.06;38.35;98651.66;4442499;32;20494;-80
2022/08/10 02:20:35;;;;;;;3.92;1.87;;;;;;;24.83;38.75;98651.13;4444923;32;20138;-80
2022/08/10 02:23:16;;;;;;;6.53;1.98;;;;;;;25.15;38.85;98655.28;4433686;32;20349;-80
2022/08/10 02:25:44;;;;;;;4.85;2.00;;;;;;;25.13;38.69;98657.22;4456397;32;20157;-80
2022/08/10 02:28:15;;;;;;;3.92;1.70;;;;;;;24.77;39.74;98657.78;4456606;32;20434;-80
2022/08/10 02:31:05;;;;;;;5.43;2.12;;;;;;;25.38;38.96;98659.22;4455513;32;20081;-80
2022/08/10 02:33:39;;;;;;;4.03;1.75;;;;;;;25.63;38.43;98661.25;4443016;32;20144;-80
2022/08/10 02:36:26;;;;;;;4.97;2.10;;;;;;;24.83;39.93;98661.69;4456544;32;20112;-80
2022/08/10 02:38:55;;;;;;;7.18;1.92;;;;;;;25.22;39.72;98665.13;4442259;32;20110;-80
2022/08/10 02:41:40;;;;;;;6.22;1.90;;;;;;;24.97;40.24;98663.88;4456509;32;20080;-80
2022/08/10 02:44:33;;;;;;;4.75;1.90;;;;;;;24.72;40.49;98660.03;4444638;32;20097;-80
2022/08/10 02:47:25;;;;;;;4.87;1.90;;;;;;;25.17;39.46;98666.53;4456491;32;20472;-80
2022/08/10 02:50:20;;;;;;;5.50;2.10;;;;;;;26.16;37.51;98667.66;4442717;32;20151;-80
2022/08/10 02:52:51;;;;;;;6.22;1.87;;;;;;;25.56;38.80;98669.88;4456092;32;20458;-80
2022/08/10 02:55:30;;;;;;;6.30;1.90;;;;;;;25.66;39.65;98668.03;4442375;32;20119;-80
2022/08/10 02:58:02;;;;;;;6.95;2.37;;;;;;;26.30;38.95;98682.19;4442545;32;20101;-80
2022/08/10 03:00:47;;;;;;;5.57;1.90;;;;;;;26.00;39.66;98681.53;4456191;32;20076;-80
2022/08/10 03:03:20;;;;;;;3.60;2.00;;;;;;;25.42;41.12;98687.03;4442426;32;20111;-80
2022/08/10 03:05:50;;;;;;;4.80;1.98;;;;;;;25.42;41.28;98681.75;4456391;32;20141;-80
2022/08/10 03:08:18;;;;;;;4.40;1.90;;;;;;;25.33;41.24;98674.69;4442117;32;20381;-80
2022/08/10 03:10:46;;;;;;;4.82;1.80;;;;;;;25.38;40.72;98678.56;4442426;32;20469;-80
2022/08/10 03:13:14;;;;;;;7.43;2.10;;;;;;;24.63;40.22;98678.50;4442011;32;20124;-80
2022/08/10 03:15:41;;;;;;;3.85;1.75;;;;;;;24.11;42.01;98675.22;4456121;32;20153;-80
2022/08/10 03:18:08;;;;;;;4.30;1.87;;;;;;;23.39;44.02;98673.53;4442368;32;20176;-80
2022/08/10 03:20:37;;;;;;;3.78;1.85;;;;;;;24.39;41.55;98673.63;4455963;32;20102;-80
2022/08/10 03:23:12;;;;;;;5.97;2.08;;;;;;;24.55;41.70;98681.81;4442267;32;20077;-80
2022/08/10 03:25:41;;;;;;;4.82;1.50;;;;;;;24.50;40.52;98676.97;4442305;32;20122;-80
2022/08/10 03:28:26;;;;;;;3.40;1.50;;;;;;;24.07;40.80;98677.28;4455903;32;20123;-80
2022/08/10 03:30:53;;;;;;;6.37;2.22;;;;;;;22.34;45.02;98695.44;4442438;32;20088;-80
2022/08/10 03:33:22;;;;;;;6.43;2.00;;;;;;;24.55;41.39;98692.38;4456073;32;20088;-80
2022/08/10 03:35:50;;;;;;;4.65;1.90;;;;;;;24.66;40.64;98692.22;4455712;32;20145;-80
2022/08/10 03:38:39;;;;;;;6.00;2.00;;;;;;;23.41;43.12;98700.59;4456112;32;20150;-80
2022/08/10 03:41:09;;;;;;;6.35;2.12;;;;;;;22.50;44.90;98695.88;4455877;32;20105;-80
2022/08/10 03:43:44;;;;;;;7.90;2.10;;;;;;;23.42;42.92;98690.87;4455704;32;20068;-80
2022/08/10 03:46:12;;;;;;;6.40;2.35;;;;;;;22.77;43.96;98698.06;4442267;32;20157;-80
2022/08/10 03:48:40;;;;;;;6.72;2.10;;;;;;;23.05;43.37;98694.81;4441819;32;20177;-80
2022/08/10 03:51:16;;;;;;;4.32;1.98;;;;;;;21.30;47.74;98698.34;4443093;32;20088;-80
2022/08/10 03:53:44;;;;;;;4.37;2.20;;;;;;;21.09;48.40;98691.09;4442094;32;20158;-80
2022/08/10 03:56:32;;;;;;;4.97;2.05;;;;;;;20.88;48.75;98697.97;4455790;32;20097;-80
2022/08/10 03:59:00;;;;;;;6.18;2.30;;;;;;;20.46;49.65;98700.19;4442048;32;20171;-80
2022/08/10 04:01:28;;;;;;;4.65;2.00;;;;;;;20.93;48.82;98701.06;4429265;32;20085;-80
2022/08/10 04:04:15;;;;;;;6.22;2.08;;;;;;;20.70;49.26;98699.31;4443898;32;20146;-80
2022/08/10 04:06:51;;;;;;;3.40;1.85;;;;;;;19.89;51.58;98698.13;4442762;32;20159;-80
2022/08/10 04:09:24;;;;;;;8.38;2.03;;;;;;;20.55;49.92;98698.66;4429724;32;20130;-80
2022/08/10 04:12:10;;;;;;;5.22;2.25;;;;;;;20.62;49.54;98704.28;4455908;32;20149;-80
2022/08/10 04:14:38;;;;;;;6.20;2.22;;;;;;;20.43;50.52;98703.03;4455719;32;20169;-80
2022/08/10 04:17:22;;;;;;;6.90;2.00;;;;;;;21.24;49.04;98701.38;4455463;32;20120;-80
2022/08/10 04:20:19;;;;;;;6.95;2.10;;;;;;;21.64;47.23;98702.66;4455960;32;20122;-80
2022/08/10 04:22:50;;;;;;;3.83;1.73;;;;;;;21.71;47.41;98703.03;4455122;32;20167;-80
2022/08/10 04:25:19;;;;;;;2.75;1.73;;;;;;;21.41;48.24;98703.59;4441475;32;20495;-80
2022/08/10 04:27:46;;;;;;;3.85;2.03;;;;;;;21.58;47.91;98703.13;4441835;32;20719;-80
2022/08/10 04:30:13;;;;;;;4.95;2.10;;;;;;;21.94;47.18;98699.44;4441543;32;20154;-80
2022/08/10 04:32:42;;;;;;;5.12;1.98;;;;;;;22.63;45.43;98711.47;4441627;32;20164;-80
2022/08/10 04:35:10;;;;;;;7.32;1.98;;;;;;;22.85;44.85;98706.16;4441461;32;20081;-80
2022/08/10 04:37:38;;;;;;;4.55;2.00;;;;;;;23.07;44.48;98716.59;4441408;32;20167;-80
2022/08/10 04:40:16;;;;;;;7.07;1.90;;;;;;;23.03;44.55;98711.69;4442625;32;20105;-80
2022/08/10 04:42:57;;;;;;;4.80;2.17;;;;;;;22.86;45.18;98709.62;4455489;32;20103;-80
2022/08/10 04:45:29;;;;;;;4.35;2.00;;;;;;;22.99;44.89;98712.94;4441641;32;20384;-80
2022/08/10 04:48:16;;;;;;;;;;;;;;;23.25;44.31;98716.00;4455973;32;20117;-80
2022/08/10 04:51:04;;;;;;;4.50;1.80;;;;;;;23.46;43.61;98718.63;4443765;32;20025;-80
2022/08/10 04:53:33;;;;;;;3.72;2.00;;;;;;;23.69;43.46;98709.59;4454957;32;20097;-80
2022/08/10 04:56:20;;;;;;;4.18;1.80;;;;;;;24.03;42.85;98719.84;4456724;32;20505;-80
2022/08/10 04:58:58;;;;;;;7.35;1.95;;;;;;;25.74;39.90;98722.84;4456785;32;20097;-80
2022/08/10 05:01:25;;;;;;;6.22;1.90;;;;;;;27.61;36.00;98722.03;4457082;32;20109;-80
2022/08/10 05:04:03;;;;;;;4.12;1.90;;;;;;;26.57;37.53;98715.72;4456910;32;20104;-80
2022/08/10 05:06:50;;;;;;;5.03;2.05;;;;;;;25.35;39.86;98718.47;4456722;32;20095;-80
2022/08/10 05:09:17;;;;;;;3.83;1.90;;;;;;;24.91;40.87;98717.25;4457137;32;20111;-80
2022/08/10 05:11:44;;;;;;;4.28;2.00;;;;;;;25.00;40.73;98721.69;4457096;32;20161;-80
2022/08/10 05:14:11;;;;;;;7.78;2.15;;;;;;;24.89;40.97;98716.56;4456712;32;20394;-80
2022/08/10 05:16:38;;;;;;;5.75;1.90;;;;;;;24.36;42.19;98719.56;4457059;32;20132;-80
2022/08/10 05:19:05;;;;;;;6.70;2.20;;;;;;;24.14;42.83;98712.69;4457126;32;20133;-80
2022/08/10 05:21:32;;;;;;;5.37;2.08;;;;;;;24.22;42.61;98712.00;4456609;32;20181;-80
2022/08/10 05:24:19;;;;;;;3.87;1.98;;;;;;;23.80;43.02;98713.94;4457036;32;20097;-80
2022/08/10 05:26:49;;;;;;;8.32;1.70;;;;;;;24.02;43.11;98708.47;4456803;32;20428;-80
2022/08/10 05:29:36;;;;;;;4.90;1.80;;;;;;;23.44;43.55;98704.75;4457141;32;20101;-80
2022/08/10 05:32:03;;;;;;;6.03;1.95;;;;;;;23.49;43.33;98713.91;4456992;32;20127;-81
2022/08/10 05:34:30;;;;;;;4.35;1.90;;;;;;;23.49;43.56;98710.44;4442584;32;20176;-80
2022/08/10 05:36:57;;;;;;;4.87;1.80;;;;;;;23.12;44.08;98700.41;4456899;32;20133;-80
2022/08/10 05:39:24;;;;;;;3.50;1.60;;;;;;;24.04;42.51;98703.94;4442997;32;20484;-80
2022/08/10 05:41:57;;;;;;;5.28;2.00;;;;;;;24.65;41.03;98710.84;4456441;32;20115;-80
2022/08/10 05:44:28;;;;;;;4.18;1.80;;;;;;;24.25;41.83;98711.75;4442999;32;20508;-81
2022/08/10 05:46:55;;;;;;;6.15;1.92;;;;;;;23.88;42.45;98706.22;4443032;32;20100;-80
2022/08/10 05:49:22;;;;;;;5.05;1.90;;;;;;;24.08;42.17;98712.41;4442521;32;20096;-80
2022/08/10 05:51:49;;;;;;;4.75;1.90;;;;;;;24.68;40.95;98702.69;4456622;32;20447;-80
2022/08/10 05:54:16;;;;;;;5.47;1.85;;;;;;;25.50;39.36;98710.91;4456606;32;20616;-80
2022/08/10 05:56:44;;;;;;;5.78;2.10;;;;;;;25.44;39.17;98716.78;4442773;32;20099;-81
2022/08/10 05:59:23;;;;;;;6.18;1.75;;;;;;;24.53;41.11;98707.50;4456885;32;20195;-80
2022/08/10 06:02:14;;;;;;;3.78;1.75;;;;;;;24.08;41.70;98707.13;4456443;32;20108;-80
2022/08/10 06:05:16;;;;;;;4.95;1.80;;;;;;;24.28;41.59;98713.28;4444808;32;20493;-80
2022/08/10 06:08:03;;;;;;;6.62;1.75;;;;;;;24.11;41.36;98715.59;4442898;32;20132;-81
2022/08/10 06:10:31;;;;;;;2.90;1.70;;;;;;;23.72;42.21;98719.06;4442126;32;20172;-82
2022/08/10 06:16:03;;;;;;;3.70;1.98;;;;;;;25.03;39.62;98721.44;4456412;32;20088;-79
2022/08/10 06:18:30;;;;;;;3.50;1.67;;;;;;;24.36;40.55;98730.13;4456715;32;20137;-79
2022/08/10 06:20:59;;;;;;;3.67;1.45;;;;;;;24.88;39.77;98716.69;4442571;32;20122;-79
2022/08/10 06:23:28;;;;;;;8.00;2.08;;;;;;;24.81;39.80;98719.06;4455841;32;20103;-79
2022/08/10 06:25:55;;;;;;;4.50;1.50;;;;;;;24.42;39.77;98723.47;4456496;32;20466;-79
2022/08/10 06:28:47;;;;;;;6.53;1.70;;;;;;;24.33;39.96;98717.19;4456507;32;20126;-78
2022/08/10 06:31:30;;;;;;;5.35;1.75;;;;;;;24.71;38.98;98723.50;4443854;32;20105;-78
2022/08/10 06:34:21;;;;;;;6.15;1.92;;;;;;;24.62;38.45;98719.87;4444127;32;20089;-77
2022/08/10 06:36:49;;;;;;;4.18;1.58;;;;;;;24.62;38.96;98719.87;4441889;32;20085;-78
2022/08/10 06:39:16;;;;;;;2.40;1.25;;;;;;;24.27;39.36;98715.09;4456327;32;20104;-78
2022/08/10 06:42:19;;;;;;;4.47;1.50;;;;;;;24.28;38.95;98726.47;4433206;32;20149;-77
2022/08/10 06:45:06;;;;;;;5.82;1.60;;;;;;;25.15;37.37;98721.28;4441685;32;20172;-78
2022/08/10 06:47:40;;;;;;;2.47;1.58;;;;;;;25.41;37.58;98730.25;4442590;32;20099;-79
2022/08/10 06:50:15;;;;;;;6.40;2.20;;;;;;;25.80;36.55;98724.91;4456365;32;20107;-79
2022/08/10 06:53:02;;;;;;;5.50;1.77;;;;;;;26.22;36.10;98727.91;4444345;32;20101;-78
2022/08/10 06:55:30;;;;;;;1.50;1.02;;;;;;;26.32;35.58;98730.47;4441068;32;20160;-81
2022/08/10 06:58:19;;;;;;;4.30;1.60;;;;;;;25.15;36.84;98693.06;4444330;32;20146;-79
2022/08/10 07:00:52;;;;;;;3.08;1.60;;;;;;;24.44;38.61;98718.88;4456314;32;20081;-78
2022/08/10 07:03:21;;;;;;;4.40;2.12;;;;;;;25.04;37.64;98715.19;4455708;32;20120;-78
2022/08/10 07:05:49;;;;;;;3.10;1.50;;;;;;;26.29;36.06;98722.84;4455230;32;20333;-78
2022/08/10 07:08:17;;;;;;;5.57;2.00;;;;;;;26.73;35.83;98727.31;4456264;32;20168;-79
2022/08/10 07:10:45;;;;;;;4.90;1.87;;;;;;;27.28;33.65;98726.28;4442377;32;20136;-79
2022/08/10 07:13:15;;;;;;;3.80;1.87;;;;;;;27.05;33.46;98729.44;4441671;32;20115;-79
2022/08/10 07:16:03;;;;;;;8.85;1.95;;;;;;;27.32;33.43;98727.63;4444017;32;20088;-77
2022/08/10 07:18:31;;;;;;;2.42;1.20;;;;;;;25.57;36.05;98725.22;4441030;32;20427;-78
2022/08/10 07:21:00;;;;;;;2.97;1.55;;;;;;;25.61;36.00;98721.31;4442169;32;20077;-79
2022/08/10 07:26:21;;;;;;;6.65;1.55;;;;;;;25.52;35.73;98722.19;4454854;32;20123;-80
2022/08/10 07:28:49;;;;;;;2.60;1.50;;;;;;;26.77;34.37;98719.87;4441875;32;20097;-80
2022/08/10 07:31:20;;;;;;;3.33;1.55;;;;;;;26.63;34.19;98728.34;4455143;32;20567;-79
2022/08/10 07:34:08;;;;;;;3.60;1.40;;;;;;;27.22;33.21;98725.09;4433201;32;20512;-79
2022/08/10 07:36:35;;;;;;;3.72;1.48;;;;;;;25.82;35.00;98715.84;4441816;32;20523;-78
2022/08/10 07:39:04;;;;;;;4.05;1.62;;;;;;;26.97;33.63;98715.25;4442154;32;20176;-78
2022/08/10 07:41:32;;;;;;;3.45;1.58;;;;;;;27.33;33.60;98716.91;4441795;32;20164;-79
2022/08/10 07:44:03;;;;;;;5.78;1.40;;;;;;;26.24;34.58;98724.09;4442255;32;20183;-78
2022/08/10 07:46:32;;;;;;;4.32;1.40;;;;;;;26.87;33.38;98719.81;4441983;32;20113;-79
2022/08/10 07:49:06;;;;;;;3.62;1.40;;;;;;;26.47;33.90;98721.91;4429367;32;20452;-78
2022/08/10 07:51:47;;;;;;;3.90;1.62;;;;;;;25.67;35.16;98719.91;4443437;32;20466;-77
2022/08/10 07:54:23;;;;;;;5.28;1.62;;;;;;;27.07;33.53;98724.81;4442391;32;20100;-78
2022/08/10 07:56:52;;;;;;;4.97;1.50;;;;;;;27.15;33.53;98726.69;4429110;32;20172;-80
2022/08/10 07:59:25;;;;;;;4.90;1.42;;;;;;;26.53;34.06;98729.25;4441879;32;20367;-81
2022/08/10 08:01:55;;;;;;;3.72;1.27;;;;;;;26.71;33.06;98716.03;4455665;32;20157;-81
2022/08/10 08:04:23;;;;;;;4.70;1.70;;;;;;;26.30;34.15;98728.00;4441717;32;20149;-79
2022/08/10 08:06:51;;;;;;;3.47;1.35;;;;;;;28.00;31.68;98730.38;4441901;32;20443;-79
2022/08/10 08:09:19;;;;;;;4.53;1.10;;;;;;;29.55;28.39;98733.28;4455424;32;20085;-79
2022/08/10 08:11:48;;;;;;;4.07;1.60;;;;;;;27.28;30.79;98708.56;4441786;32;20417;-80
2022/08/10 08:14:16;;;;;;;5.70;1.52;;;;;;;26.63;32.41;98709.84;4441913;32;20139;-78
2022/08/10 08:16:45;;;;;;;2.05;1.20;;;;;;;26.75;32.78;98741.22;4441170;32;20168;-78
2022/08/10 08:19:13;;;;;;;2.03;1.20;;;;;;;27.07;31.60;98726.63;4441748;32;20176;-78
2022/08/10 08:22:00;;;;;;;4.12;1.60;;;;;;;27.90;31.04;98734.97;4443828;32;20142;-79
2022/08/10 08:24:47;;;;;;;;;;;;;;;27.59;31.59;98731.97;4432291;32;20388;-79
2022/08/10 08:27:18;;;;;;;2.10;1.25;;;;;;;26.73;32.27;98731.75;4429344;32;20460;-78
2022/08/10 08:29:47;;;;;;;3.65;1.58;;;;;;;26.21;34.24;98734.16;4436989;32;20431;-78
2022/08/10 08:32:21;;;;;;;5.03;1.30;;;;;;;28.19;31.47;98729.31;4438998;32;20078;-79
2022/08/10 08:35:00;;;;;;;6.72;1.37;;;;;;;27.09;32.28;98725.47;4438564;32;20132;-80
2022/08/10 08:37:30;;;;;;;3.87;1.40;;;;;;;26.15;34.15;98729.44;4438599;32;20131;-79
2022/08/10 08:40:24;;;;;;;6.90;1.90;;;;;;;27.74;30.92;98733.06;4428550;32;20097;-79
2022/08/10 08:43:18;;;;;;;3.87;1.40;;;;;;;27.92;29.98;98722.38;4438438;32;20133;-79
2022/08/10 08:46:00;;;;;;;3.83;1.65;;;;;;;29.22;28.96;98732.47;4438437;32;20248;-79
2022/08/10 08:48:59;;;;;;;2.03;1.10;;;;;;;29.47;28.48;98726.13;4439835;32;20093;-79
2022/08/10 08:51:53;;;;;;;4.35;1.50;;;;;;;27.57;31.17;98713.56;4439609;32;20103;-79
2022/08/10 08:54:57;;;;;;;4.30;1.50;;;;;;;28.02;30.96;98715.13;4438581;32;20100;-79
2022/08/10 08:57:48;;;;;;;3.30;1.30;;;;;;;29.56;28.70;98716.31;4438291;32;20149;-79
2022/08/10 09:00:43;;;;;;;2.78;1.40;;;;;;;30.84;26.71;98719.56;4438651;32;20148;-81
2022/08/10 09:03:25;;;;;;;4.10;1.70;;;;;;;28.97;29.13;98726.34;4439830;32;20176;-79
2022/08/10 09:06:03;;;;;;;5.22;1.40;;;;;;;30.18;27.87;98735.09;4439304;32;20081;-79
2022/08/10 09:08:49;;;;;;;5.43;1.40;;;;;;;30.34;27.93;98737.69;4439576;32;20115;-78
2022/08/10 09:11:29;;;;;;;2.97;1.52;;;;;;;30.19;28.15;98726.94;4439356;32;20105;-78
2022/08/10 09:14:00;;;;;;;7.07;1.50;;;;;;;30.64;27.71;98721.91;4438463;32;20107;-78
2022/08/10 09:17:00;;;;;;;3.37;1.33;;;;;;;29.17;28.90;98711.72;4438300;32;20084;-78
2022/08/10 09:19:32;;;;;;;4.03;1.80;;;;;;;30.01;28.15;98725.50;4438135;32;20252;-79
2022/08/10 09:22:21;;;;;;;4.03;1.60;;;;;;;29.77;27.94;98723.75;4438581;32;20191;-78
2022/08/10 09:24:55;;;;;;;4.57;1.52;;;;;;;28.44;29.23;98709.81;4437714;32;20107;-78
2022/08/10 09:27:35;;;;;;;4.20;1.45;;;;;;;27.43;30.64;98718.59;4439389;32;20108;-78
2022/08/10 09:30:05;;;;;;;2.17;1.30;;;;;;;27.15;31.15;98702.84;4438221;32;20456;-78
2022/08/10 09:33:17;;;;;;;5.10;2.17;;;;;;;27.38;31.04;98713.78;4437857;32;20176;-78
2022/08/10 09:36:16;;;;;;;4.80;1.83;;;;;;;26.86;32.07;98703.09;4437959;32;20097;-78
2022/08/10 09:39:24;;;;;;;3.42;1.70;;;;;;;29.81;28.19;98709.12;4438825;32;20107;-79
2022/08/10 09:42:17;;;;;;;2.53;1.60;;;;;;;29.67;27.52;98700.03;4441197;32;20159;-79
2022/08/10 09:44:55;;;;;;;3.85;1.50;;;;;;;28.73;29.09;98703.22;4440159;32;20184;-78
2022/08/10 09:48:02;;;;;;;6.50;1.80;;;;;;;30.07;27.54;98700.88;4440037;32;20093;-79
2022/08/10 09:50:55;;;;;;;3.40;1.50;;;;;;;30.49;27.07;98709.28;4407004;32;20095;-79
2022/08/10 09:53:59;;;;;;;4.40;1.98;;;;;;;28.86;29.23;98702.72;4439658;32;20155;-79
2022/08/10 09:57:11;;;;;;;6.53;2.15;;;;;;;30.32;27.26;98709.59;4439960;32;20731;-79
2022/08/10 10:00:13;;;;;;;9.10;3.15;;;;;;;32.23;24.72;98695.81;4441162;32;20105;-79
2022/08/10 10:03:00;;;;;;;2.95;1.60;;;;;;;30.61;26.18;98696.41;4440049;32;20089;-78
2022/08/10 10:05:35;;;;;;;6.50;1.80;;;;;;;30.52;26.63;98692.16;4439958;32;20102;-79
2022/08/10 10:08:12;;;;;;;4.60;1.83;;;;;;;30.59;26.61;98690.41;4440923;32;20105;-79
2022/08/10 10:11:05;;;;;;;3.53;1.70;;;;;;;32.11;24.74;98684.78;4440177;32;20547;-79
2022/08/10 10:13:40;;;;;;;3.22;1.60;;;;;;;31.08;25.92;98682.06;4434929;32;20152;-80
2022/08/10 10:16:51;;;;;;;3.30;1.40;;;;;;;30.23;26.90;98688.34;4441045;32;20101;-80
2022/08/10 10:19:45;;;;;;;3.05;1.60;;;;;;;29.27;28.18;98687.63;4440114;32;20128;-80
2022/08/10 10:22:40;;;;;;;5.05;1.75;;;;;;;29.55;28.80;98674.78;4439509;32;20554;-80
2022/08/10 10:25:17;;;;;;;3.08;1.48;;;;;;;30.75;26.29;98685.03;4439433;32;20113;-80
2022/08/10 10:28:10;;;;;;;2.40;1.40;;;;;;;30.94;26.34;98670.34;4442066;32;20104;-78
2022/08/10 10:30:47;;;;;;;5.55;2.20;;;;;;;30.77;26.68;98667.03;4429898;32;20479;-78
2022/08/10 10:33:23;;;;;;;8.30;1.90;;;;;;;31.33;26.02;98670.19;4442743;32;20116;-78
2022/08/10 10:35:51;;;;;;;;;;;;;;;31.45;25.89;98667.06;4442454;32;20156;-78
2022/08/10 10:38:22;;;;;;;4.60;1.80;;;;;;;30.38;27.34;98663.62;4442553;32;19972;-79
2022/08/10 10:41:02;;;;;;;4.35;1.52;;;;;;;29.61;28.68;98661.66;4442563;32;20147;-78
2022/08/10 10:43:54;;;;;;;3.42;1.73;;;;;;;29.24;29.41;98659.56;4442206;32;20096;-78
2022/08/10 10:47:00;;;;;;;5.25;1.73;;;;;;;30.87;27.19;98663.28;4442513;32;20112;-79
2022/08/10 10:49:45;;;;;;;3.67;1.55;;;;;;;32.14;25.21;98656.91;4429408;32;20135;-79
2022/08/10 10:52:28;;;;;;;3.83;1.73;;;;;;;29.87;27.55;98656.03;4455525;32;20454;-79
2022/08/10 10:55:42;;;;;;;3.12;1.80;;;;;;;28.15;30.11;98649.19;4442401;32;20505;-79
2022/08/10 10:59:18;;;;;;;8.27;1.95;;;;;;;28.48;30.36;98639.47;4377806;32;20237;-79
2022/08/10 11:02:23;;;;;;;4.50;1.70;;;;;;;30.53;27.44;98653.88;4373452;32;20485;-79
2022/08/10 11:05:12;;;;;;;2.65;1.77;;;;;;;29.93;27.73;98649.22;4455834;32;20109;-80
2022/08/10 11:07:44;;;;;;;5.90;1.80;;;;;;;32.07;24.90;98647.97;4442456;32;20128;-80
2022/08/10 11:10:23;;;;;;;4.18;1.80;;;;;;;33.52;23.25;98651.97;4443016;32;20458;-79
2022/08/10 11:13:26;;;;;;;3.87;1.67;;;;;;;33.37;23.45;98649.41;4431590;32;20104;-78
2022/08/10 11:16:22;;;;;;;3.55;1.52;;;;;;;30.71;26.51;98641.09;4433755;32;20157;-79
2022/08/10 11:19:16;;;;;;;5.62;1.90;;;;;;;30.93;25.86;98641.22;4441921;32;20383;-79
2022/08/10 11:22:17;;;;;;;4.43;1.77;;;;;;;30.05;27.19;98647.81;4442247;32;20594;-79
2022/08/10 11:24:50;;;;;;;4.00;1.60;;;;;;;31.28;25.88;98639.75;4428975;32;20470;-77
2022/08/10 11:27:47;;;;;;;3.15;1.70;;;;;;;28.07;29.95;98627.09;4442288;32;20160;-77
2022/08/10 11:30:28;;;;;;;4.82;2.00;;;;;;;28.99;29.01;98640.16;4442279;32;20080;-77
2022/08/10 11:33:13;;;;;;;5.82;1.70;;;;;;;29.91;27.30;98637.91;4441912;32;20085;-78
2022/08/10 11:36:02;;;;;;;3.65;1.60;;;;;;;31.45;25.45;98632.41;4444241;32;20120;-77
2022/08/10 11:39:10;;;;;;;3.87;1.62;;;;;;;31.72;25.40;98625.59;4429208;32;20206;-78
2022/08/10 11:41:50;;;;;;;6.15;1.83;;;;;;;29.36;27.75;98617.50;4353696;32;20169;-77
2022/08/10 11:44:44;;;;;;;6.95;1.58;;;;;;;28.87;28.69;98633.50;4444188;32;20073;-78
2022/08/10 11:47:16;;;;;;;5.37;1.70;;;;;;;29.46;27.72;98627.94;4429059;32;20120;-78
2022/08/10 11:49:54;;;;;;;5.43;2.90;;;;;;;30.04;27.56;98643.50;4442097;32;20177;-79
2022/08/10 11:53:14;;;;;;;3.65;1.70;;;;;;;30.96;25.86;98632.91;4429138;32;20159;-78
2022/08/10 11:55:44;;;;;;;2.33;1.50;;;;;;;31.25;25.42;98640.09;4411234;32;20136;-79
2022/08/10 12:01:03;;;;;;;4.55;1.62;;;;;;;29.06;27.85;98632.34;4444041;32;20117;-79
2022/08/10 12:03:31;;;;;;;5.12;1.80;;;;;;;28.44;28.44;98605.47;4428924;32;20164;-78
2022/08/10 12:06:01;;;;;;;3.92;1.90;;;;;;;27.95;29.38;98630.06;4429729;32;20104;-78
2022/08/10 12:08:31;;;;;;;3.47;1.70;;;;;;;29.24;27.80;98640.97;4429404;32;20093;-78
2022/08/10 12:11:24;;;;;;;3.37;1.80;;;;;;;30.88;25.82;98631.13;4433395;32;20466;-77
2022/08/10 12:14:03;;;;;;;4.12;1.80;;;;;;;30.68;26.18;98628.13;4441408;32;20084;-77
2022/08/10 12:16:49;;;;;;;4.30;1.58;;;;;;;32.42;23.78;98628.47;4430491;32;20511;-78
2022/08/10 12:19:37;;;;;;;4.07;1.67;;;;;;;32.13;23.87;98625.88;4427255;32;20766;-78
2022/08/10 12:22:32;;;;;;;3.12;1.40;;;;;;;32.63;22.95;98616.94;4442633;32;20097;-78
2022/08/10 12:25:06;;;;;;;4.75;1.52;;;;;;;30.63;24.64;98609.19;4440777;32;20428;-78
2022/08/10 12:27:47;;;;;;;4.47;1.73;;;;;;;29.82;25.90;98613.19;4427915;32;20689;-77
2022/08/10 12:30:16;;;;;;;3.47;1.77;;;;;;;31.37;25.20;98604.84;4441072;32;20399;-78
2022/08/10 12:32:52;;;;;;;3.45;1.62;;;;;;;30.72;25.76;98601.97;4441634;32;20141;-79
2022/08/10 12:35:38;;;;;;;3.28;1.55;;;;;;;30.05;26.69;98597.25;4455047;32;20093;-77
2022/08/10 12:38:31;;;;;;;4.72;1.92;;;;;;;28.59;28.58;98601.16;4430779;32;20081;-79